sensor_id;sensor_type;location;lat;lon;timestamp;pressure;altitude;pressure_sealevel;temperature;humidity
74794;BME280;63320;50.768;6.724;2024-03-08T00:01:42;100306.56;;;5.62;nan
74794;BME280;63320;50.768;6.724;2024-03-08T00:04:08;100304.25;;;5.50;nan
74794;BME280;63320;50.768;6.724;2024-03-08T00:06:35;100304.88;;;5.60;nan
74794;BME280;63320;50.768;6.724;2024-03-08T00:09:00;100307.91;;;5.09;nan
74794;BME280;63320;50.768;6.724;2024-03-08T00:11:25;100299.19;;;5.44;nan
74794;BME280;63320;50.768;6.724;2024-03-08T00:13:51;100299.56;;;5.30;nan
74794;BME280;63320;50.768;6.724;2024-03-08T00:16:16;100301.84;;;5.08;nan
74794;BME280;63320;50.768;6.724;2024-03-08T00:18:42;100292.56;;;5.32;nan
74794;BME280;63320;50.768;6.724;2024-03-08T00:21:07;100289.69;;;5.41;nan
74794;BME280;63320;50.768;6.724;2024-03-08T00:23:34;100291.22;;;5.50;nan
74794;BME280;63320;50.768;6.724;2024-03-08T00:26:00;100283.97;;;5.61;nan
74794;BME280;63320;50.768;6.724;2024-03-08T00:28:25;100287.69;;;5.53;nan
74794;BME280;63320;50.768;6.724;2024-03-08T00:30:50;100279.16;;;5.46;nan
74794;BME280;63320;50.768;6.724;2024-03-08T00:33:16;100285.47;;;5.37;nan
74794;BME280;63320;50.768;6.724;2024-03-08T00:35:41;100289.69;;;5.41;nan
74794;BME280;63320;50.768;6.724;2024-03-08T00:38:07;100283.56;;;5.44;nan
74794;BME280;63320;50.768;6.724;2024-03-08T00:40:34;100280.28;;;5.36;nan
74794;BME280;63320;50.768;6.724;2024-03-08T00:42:59;100274.94;;;5.40;nan
74794;BME280;63320;50.768;6.724;2024-03-08T00:45:24;100271.88;;;5.25;nan
74794;BME280;63320;50.768;6.724;2024-03-08T00:47:50;100280.31;;;5.00;nan
74794;BME280;63320;50.768;6.724;2024-03-08T00:50:15;100278.28;;;5.11;nan
74794;BME280;63320;50.768;6.724;2024-03-08T00:52:41;100272.69;;;5.28;nan
74794;BME280;63320;50.768;6.724;2024-03-08T00:55:07;100271.47;;;5.06;nan
74794;BME280;63320;50.768;6.724;2024-03-08T00:57:34;100268.22;;;5.32;nan
74794;BME280;63320;50.768;6.724;2024-03-08T00:59:59;100267.41;;;5.30;nan
74794;BME280;63320;50.768;6.724;2024-03-08T01:02:24;100257.78;;;5.32;nan
74794;BME280;63320;50.768;6.724;2024-03-08T01:04:50;100254.47;;;4.92;nan
74794;BME280;63320;50.768;6.724;2024-03-08T01:07:15;100248.88;;;5.08;nan
74794;BME280;63320;50.768;6.724;2024-03-08T01:09:40;100255.94;;;4.67;nan
74794;BME280;63320;50.768;6.724;2024-03-08T01:12:06;100256.97;;;4.96;nan
74794;BME280;63320;50.768;6.724;2024-03-08T01:14:33;100248.97;;;4.67;nan
74794;BME280;63320;50.768;6.724;2024-03-08T01:16:58;100252.50;;;5.01;nan
74794;BME280;63320;50.768;6.724;2024-03-08T01:19:24;100248.13;;;4.67;nan
74794;BME280;63320;50.768;6.724;2024-03-08T01:21:49;100249.56;;;4.79;nan
74794;BME280;63320;50.768;6.724;2024-03-08T01:24:15;100240.38;;;4.64;nan
74794;BME280;63320;50.768;6.724;2024-03-08T01:26:40;100245.59;;;4.64;nan
74794;BME280;63320;50.768;6.724;2024-03-08T01:29:05;100242.22;;;4.59;nan
74794;BME280;63320;50.768;6.724;2024-03-08T01:31:32;100241.00;;;4.74;nan
74794;BME280;63320;50.768;6.724;2024-03-08T01:33:58;100235.22;;;4.61;nan
74794;BME280;63320;50.768;6.724;2024-03-08T01:36:24;100236.59;;;4.76;nan
74794;BME280;63320;50.768;6.724;2024-03-08T01:38:49;100239.09;;;4.80;nan
74794;BME280;63320;50.768;6.724;2024-03-08T01:41:14;100238.13;;;4.49;nan
74794;BME280;63320;50.768;6.724;2024-03-08T01:43:40;100241.91;;;4.73;nan
74794;BME280;63320;50.768;6.724;2024-03-08T01:46:06;100230.44;;;4.80;nan
74794;BME280;63320;50.768;6.724;2024-03-08T01:48:34;100234.41;;;4.59;nan
74794;BME280;63320;50.768;6.724;2024-03-08T01:50:59;100227.78;;;4.83;nan
74794;BME280;63320;50.768;6.724;2024-03-08T01:53:25;100224.63;;;4.31;nan
74794;BME280;63320;50.768;6.724;2024-03-08T01:55:54;100217.47;;;4.78;nan
74794;BME280;63320;50.768;6.724;2024-03-08T01:58:21;100214.22;;;4.68;nan
74794;BME280;63320;50.768;6.724;2024-03-08T02:00:48;100216.16;;;4.60;nan
74794;BME280;63320;50.768;6.724;2024-03-08T02:03:14;100209.06;;;4.65;nan
74794;BME280;63320;50.768;6.724;2024-03-08T02:05:41;100210.34;;;4.85;nan
74794;BME280;63320;50.768;6.724;2024-03-08T02:08:07;100216.97;;;4.62;nan
74794;BME280;63320;50.768;6.724;2024-03-08T02:10:33;100202.75;;;4.76;nan
74794;BME280;63320;50.768;6.724;2024-03-08T02:12:59;100214.09;;;4.36;nan
74794;BME280;63320;50.768;6.724;2024-03-08T02:15:24;100205.53;;;4.31;nan
74794;BME280;63320;50.768;6.724;2024-03-08T02:17:50;100206.25;;;4.39;nan
74794;BME280;63320;50.768;6.724;2024-03-08T02:20:15;100204.19;;;4.53;nan
74794;BME280;63320;50.768;6.724;2024-03-08T02:22:42;100188.97;;;4.72;nan
74794;BME280;63320;50.768;6.724;2024-03-08T02:25:08;100191.81;;;4.61;nan
74794;BME280;63320;50.768;6.724;2024-03-08T02:27:34;100194.19;;;4.71;nan
74794;BME280;63320;50.768;6.724;2024-03-08T02:29:59;100187.97;;;4.42;nan
74794;BME280;63320;50.768;6.724;2024-03-08T02:32:24;100183.94;;;4.64;nan
74794;BME280;63320;50.768;6.724;2024-03-08T02:34:50;100188.91;;;4.74;nan
74794;BME280;63320;50.768;6.724;2024-03-08T02:37:15;100193.44;;;4.30;nan
74794;BME280;63320;50.768;6.724;2024-03-08T02:39:42;100188.66;;;4.10;nan
74794;BME280;63320;50.768;6.724;2024-03-08T02:42:08;100182.31;;;4.22;nan
74794;BME280;63320;50.768;6.724;2024-03-08T02:44:33;100182.06;;;4.34;nan
74794;BME280;63320;50.768;6.724;2024-03-08T02:46:58;100175.97;;;4.35;nan
74794;BME280;63320;50.768;6.724;2024-03-08T02:49:24;100173.34;;;4.71;nan
74794;BME280;63320;50.768;6.724;2024-03-08T02:51:49;100172.44;;;4.37;nan
74794;BME280;63320;50.768;6.724;2024-03-08T02:54:15;100181.81;;;3.66;nan
74794;BME280;63320;50.768;6.724;2024-03-08T02:56:41;100176.94;;;3.92;nan
74794;BME280;63320;50.768;6.724;2024-03-08T02:59:07;100173.03;;;3.71;nan
74794;BME280;63320;50.768;6.724;2024-03-08T03:01:33;100172.03;;;3.78;nan
74794;BME280;63320;50.768;6.724;2024-03-08T03:03:58;100169.34;;;3.83;nan
74794;BME280;63320;50.768;6.724;2024-03-08T03:06:24;100166.53;;;3.52;nan
74794;BME280;63320;50.768;6.724;2024-03-08T03:08:49;100159.19;;;4.09;nan
74794;BME280;63320;50.768;6.724;2024-03-08T03:11:14;100158.50;;;4.01;nan
74794;BME280;63320;50.768;6.724;2024-03-08T03:13:41;100159.81;;;3.82;nan
74794;BME280;63320;50.768;6.724;2024-03-08T03:16:06;100156.84;;;3.58;nan
74794;BME280;63320;50.768;6.724;2024-03-08T03:18:32;100153.88;;;3.75;nan
74794;BME280;63320;50.768;6.724;2024-03-08T03:20:57;100161.16;;;3.59;nan
74794;BME280;63320;50.768;6.724;2024-03-08T03:23:23;100158.78;;;3.49;nan
74794;BME280;63320;50.768;6.724;2024-03-08T03:25:48;100154.28;;;3.96;nan
74794;BME280;63320;50.768;6.724;2024-03-08T03:28:13;100152.09;;;4.18;nan
74794;BME280;63320;50.768;6.724;2024-03-08T03:30:40;100156.25;;;3.86;nan
74794;BME280;63320;50.768;6.724;2024-03-08T03:33:06;100148.34;;;3.90;nan
74794;BME280;63320;50.768;6.724;2024-03-08T03:35:31;100141.81;;;3.73;nan
74794;BME280;63320;50.768;6.724;2024-03-08T03:37:56;100152.44;;;3.60;nan
74794;BME280;63320;50.768;6.724;2024-03-08T03:40:22;100148.53;;;3.83;nan
74794;BME280;63320;50.768;6.724;2024-03-08T03:42:47;100154.47;;;3.46;nan
74794;BME280;63320;50.768;6.724;2024-03-08T03:45:12;100153.59;;;3.47;nan
74794;BME280;63320;50.768;6.724;2024-03-08T03:47:39;100143.25;;;3.44;nan
74794;BME280;63320;50.768;6.724;2024-03-08T03:50:06;100149.09;;;3.57;nan
74794;BME280;63320;50.768;6.724;2024-03-08T03:52:32;100141.28;;;3.57;nan
74794;BME280;63320;50.768;6.724;2024-03-08T03:54:57;100147.81;;;3.33;nan
74794;BME280;63320;50.768;6.724;2024-03-08T03:57:22;100143.25;;;3.86;nan
74794;BME280;63320;50.768;6.724;2024-03-08T03:59:48;100138.72;;;3.94;nan
74794;BME280;63320;50.768;6.724;2024-03-08T04:02:13;100135.81;;;3.27;nan
74794;BME280;63320;50.768;6.724;2024-03-08T04:04:40;100139.13;;;3.34;nan
74794;BME280;63320;50.768;6.724;2024-03-08T04:07:06;100138.13;;;3.41;nan
74794;BME280;63320;50.768;6.724;2024-03-08T04:09:31;100134.78;;;3.34;nan
74794;BME280;63320;50.768;6.724;2024-03-08T04:11:56;100127.72;;;3.41;nan
74794;BME280;63320;50.768;6.724;2024-03-08T04:14:23;100134.91;;;3.72;nan
74794;BME280;63320;50.768;6.724;2024-03-08T04:16:48;100126.97;;;3.36;nan
74794;BME280;63320;50.768;6.724;2024-03-08T04:19:14;100128.78;;;3.31;nan
74794;BME280;63320;50.768;6.724;2024-03-08T04:21:40;100132.53;;;3.16;nan
74794;BME280;63320;50.768;6.724;2024-03-08T04:24:06;100123.75;;;3.65;nan
74794;BME280;63320;50.768;6.724;2024-03-08T04:26:31;100127.03;;;3.33;nan
74794;BME280;63320;50.768;6.724;2024-03-08T04:28:57;100118.53;;;3.26;nan
74794;BME280;63320;50.768;6.724;2024-03-08T04:31:22;100124.56;;;3.27;nan
74794;BME280;63320;50.768;6.724;2024-03-08T04:33:48;100116.34;;;3.03;nan
74794;BME280;63320;50.768;6.724;2024-03-08T04:36:13;100114.66;;;3.02;nan
74794;BME280;63320;50.768;6.724;2024-03-08T04:38:40;100116.88;;;3.22;nan
74794;BME280;63320;50.768;6.724;2024-03-08T04:41:05;100105.63;;;3.20;nan
74794;BME280;63320;50.768;6.724;2024-03-08T04:43:31;100107.91;;;2.92;nan
74794;BME280;63320;50.768;6.724;2024-03-08T04:45:56;100110.19;;;3.09;nan
74794;BME280;63320;50.768;6.724;2024-03-08T04:48:22;100109.00;;;3.66;nan
74794;BME280;63320;50.768;6.724;2024-03-08T04:50:47;100107.28;;;3.24;nan
74794;BME280;63320;50.768;6.724;2024-03-08T04:53:12;100109.09;;;3.62;nan
74794;BME280;63320;50.768;6.724;2024-03-08T04:55:39;100102.53;;;3.45;nan
74794;BME280;63320;50.768;6.724;2024-03-08T04:58:05;100096.72;;;3.74;nan
74794;BME280;63320;50.768;6.724;2024-03-08T05:00:30;100095.13;;;3.26;nan
74794;BME280;63320;50.768;6.724;2024-03-08T05:02:55;100091.72;;;3.64;nan
74794;BME280;63320;50.768;6.724;2024-03-08T05:05:21;100092.84;;;3.09;nan
74794;BME280;63320;50.768;6.724;2024-03-08T05:07:46;100085.41;;;2.91;nan
74794;BME280;63320;50.768;6.724;2024-03-08T05:10:11;100082.28;;;3.19;nan
74794;BME280;63320;50.768;6.724;2024-03-08T05:12:38;100086.84;;;3.06;nan
74794;BME280;63320;50.768;6.724;2024-03-08T05:15:04;100088.53;;;3.08;nan
74794;BME280;63320;50.768;6.724;2024-03-08T05:17:30;100088.97;;;3.71;nan
74794;BME280;63320;50.768;6.724;2024-03-08T05:19:55;100082.47;;;3.09;nan
74794;BME280;63320;50.768;6.724;2024-03-08T05:22:21;100083.09;;;3.21;nan
74794;BME280;63320;50.768;6.724;2024-03-08T05:24:46;100083.94;;;3.23;nan
74794;BME280;63320;50.768;6.724;2024-03-08T05:27:12;100084.44;;;3.40;nan
74794;BME280;63320;50.768;6.724;2024-03-08T05:29:38;100089.56;;;3.00;nan
74794;BME280;63320;50.768;6.724;2024-03-08T05:32:04;100086.94;;;3.03;nan
74794;BME280;63320;50.768;6.724;2024-03-08T05:34:30;100083.66;;;2.93;nan
74794;BME280;63320;50.768;6.724;2024-03-08T05:36:55;100085.94;;;3.08;nan
74794;BME280;63320;50.768;6.724;2024-03-08T05:39:21;100087.91;;;2.97;nan
74794;BME280;63320;50.768;6.724;2024-03-08T05:41:47;100077.91;;;2.76;nan
74794;BME280;63320;50.768;6.724;2024-03-08T05:44:12;100079.06;;;3.07;nan
74794;BME280;63320;50.768;6.724;2024-03-08T05:46:39;100071.66;;;2.86;nan
74794;BME280;63320;50.768;6.724;2024-03-08T05:49:05;100073.53;;;3.23;nan
74794;BME280;63320;50.768;6.724;2024-03-08T05:51:31;100072.69;;;3.22;nan
74794;BME280;63320;50.768;6.724;2024-03-08T05:53:57;100065.50;;;2.92;nan
74794;BME280;63320;50.768;6.724;2024-03-08T05:56:22;100063.59;;;3.00;nan
74794;BME280;63320;50.768;6.724;2024-03-08T05:58:47;100065.94;;;2.69;nan
74794;BME280;63320;50.768;6.724;2024-03-08T06:01:13;100061.81;;;3.03;nan
74794;BME280;63320;50.768;6.724;2024-03-08T06:03:41;100059.94;;;3.11;nan
74794;BME280;63320;50.768;6.724;2024-03-08T06:06:06;100064.94;;;3.19;nan
74794;BME280;63320;50.768;6.724;2024-03-08T06:08:32;100050.47;;;3.07;nan
74794;BME280;63320;50.768;6.724;2024-03-08T06:10:57;100052.16;;;2.65;nan
74794;BME280;63320;50.768;6.724;2024-03-08T06:13:22;100058.03;;;2.75;nan
74794;BME280;63320;50.768;6.724;2024-03-08T06:15:48;100057.56;;;2.99;nan
74794;BME280;63320;50.768;6.724;2024-03-08T06:18:13;100049.06;;;3.33;nan
74794;BME280;63320;50.768;6.724;2024-03-08T06:20:40;100057.91;;;3.24;nan
74794;BME280;63320;50.768;6.724;2024-03-08T06:23:05;100054.91;;;3.44;nan
74794;BME280;63320;50.768;6.724;2024-03-08T06:25:31;100055.66;;;3.07;nan
74794;BME280;63320;50.768;6.724;2024-03-08T06:27:56;100062.09;;;2.88;nan
74794;BME280;63320;50.768;6.724;2024-03-08T06:30:22;100046.72;;;3.22;nan
74794;BME280;63320;50.768;6.724;2024-03-08T06:32:47;100053.56;;;3.25;nan
74794;BME280;63320;50.768;6.724;2024-03-08T06:35:12;100052.94;;;3.54;nan
74794;BME280;63320;50.768;6.724;2024-03-08T06:37:39;100052.69;;;3.26;nan
74794;BME280;63320;50.768;6.724;2024-03-08T06:40:06;100055.75;;;3.45;nan
74794;BME280;63320;50.768;6.724;2024-03-08T06:42:31;100047.25;;;3.77;nan
74794;BME280;63320;50.768;6.724;2024-03-08T06:44:57;100041.56;;;3.97;nan
74794;BME280;63320;50.768;6.724;2024-03-08T06:47:22;100050.47;;;3.86;nan
74794;BME280;63320;50.768;6.724;2024-03-08T06:49:48;100048.09;;;3.76;nan
74794;BME280;63320;50.768;6.724;2024-03-08T06:52:13;100057.78;;;3.32;nan
74794;BME280;63320;50.768;6.724;2024-03-08T06:54:40;100056.16;;;3.26;nan
74794;BME280;63320;50.768;6.724;2024-03-08T06:57:05;100058.44;;;3.40;nan
74794;BME280;63320;50.768;6.724;2024-03-08T06:59:31;100055.41;;;3.61;nan
74794;BME280;63320;50.768;6.724;2024-03-08T07:01:56;100048.75;;;3.48;nan
74794;BME280;63320;50.768;6.724;2024-03-08T07:04:21;100044.50;;;3.44;nan
74794;BME280;63320;50.768;6.724;2024-03-08T07:06:47;100039.66;;;3.68;nan
74794;BME280;63320;50.768;6.724;2024-03-08T07:09:12;100044.25;;;3.55;nan
74794;BME280;63320;50.768;6.724;2024-03-08T07:11:39;100050.22;;;3.60;nan
74794;BME280;63320;50.768;6.724;2024-03-08T07:14:04;100037.53;;;3.83;nan
74794;BME280;63320;50.768;6.724;2024-03-08T07:16:30;100033.19;;;3.84;nan
74794;BME280;63320;50.768;6.724;2024-03-08T07:18:55;100031.56;;;3.80;nan
74794;BME280;63320;50.768;6.724;2024-03-08T07:21:20;100029.16;;;4.06;nan
74794;BME280;63320;50.768;6.724;2024-03-08T07:23:46;100024.41;;;4.24;nan
74794;BME280;63320;50.768;6.724;2024-03-08T07:26:14;100024.56;;;4.18;nan
74794;BME280;63320;50.768;6.724;2024-03-08T07:28:41;100020.84;;;4.28;nan
74794;BME280;63320;50.768;6.724;2024-03-08T07:31:07;100027.13;;;4.19;nan
74794;BME280;63320;50.768;6.724;2024-03-08T07:33:32;100025.22;;;4.26;nan
74794;BME280;63320;50.768;6.724;2024-03-08T07:35:57;100012.72;;;4.40;nan
74794;BME280;63320;50.768;6.724;2024-03-08T07:38:23;100018.88;;;4.36;nan
74794;BME280;63320;50.768;6.724;2024-03-08T07:40:48;100013.44;;;4.11;nan
74794;BME280;63320;50.768;6.724;2024-03-08T07:43:14;100015.63;;;4.28;nan
74794;BME280;63320;50.768;6.724;2024-03-08T07:45:41;100005.00;;;4.37;nan
74794;BME280;63320;50.768;6.724;2024-03-08T07:48:07;100002.69;;;4.25;nan
74794;BME280;63320;50.768;6.724;2024-03-08T07:50:32;100003.09;;;4.09;nan
74794;BME280;63320;50.768;6.724;2024-03-08T07:52:57;100000.41;;;4.12;nan
74794;BME280;63320;50.768;6.724;2024-03-08T07:55:23;99997.88;;;4.09;nan
74794;BME280;63320;50.768;6.724;2024-03-08T07:57:48;100000.22;;;4.20;nan
74794;BME280;63320;50.768;6.724;2024-03-08T08:00:14;99992.13;;;4.31;nan
74794;BME280;63320;50.768;6.724;2024-03-08T08:02:41;99991.09;;;4.38;nan
74794;BME280;63320;50.768;6.724;2024-03-08T08:05:07;99987.34;;;4.47;nan
74794;BME280;63320;50.768;6.724;2024-03-08T08:07:32;99978.00;;;4.39;nan
74794;BME280;63320;50.768;6.724;2024-03-08T08:09:57;99979.88;;;4.34;nan
74794;BME280;63320;50.768;6.724;2024-03-08T08:12:23;99971.88;;;4.42;nan
74794;BME280;63320;50.768;6.724;2024-03-08T08:14:48;99972.34;;;4.56;nan
74794;BME280;63320;50.768;6.724;2024-03-08T08:17:14;99966.88;;;4.67;nan
74794;BME280;63320;50.768;6.724;2024-03-08T08:19:42;99966.75;;;4.39;nan
74794;BME280;63320;50.768;6.724;2024-03-08T08:22:07;99959.44;;;4.53;nan
74794;BME280;63320;50.768;6.724;2024-03-08T08:24:32;99955.78;;;4.59;nan
74794;BME280;63320;50.768;6.724;2024-03-08T08:26:58;99955.38;;;4.43;nan
74794;BME280;63320;50.768;6.724;2024-03-08T08:29:23;99946.34;;;4.55;nan
74794;BME280;63320;50.768;6.724;2024-03-08T08:31:49;99947.63;;;4.71;nan
74794;BME280;63320;50.768;6.724;2024-03-08T08:34:14;99944.75;;;4.80;nan
74794;BME280;63320;50.768;6.724;2024-03-08T08:36:41;99931.75;;;4.80;nan
74794;BME280;63320;50.768;6.724;2024-03-08T08:39:06;99939.94;;;4.66;nan
74794;BME280;63320;50.768;6.724;2024-03-08T08:41:31;99933.34;;;4.84;nan
74794;BME280;63320;50.768;6.724;2024-03-08T08:43:57;99933.16;;;4.90;nan
74794;BME280;63320;50.768;6.724;2024-03-08T08:46:22;99937.34;;;4.96;nan
74794;BME280;63320;50.768;6.724;2024-03-08T08:48:48;99939.63;;;5.07;nan
74794;BME280;63320;50.768;6.724;2024-03-08T08:51:13;99942.22;;;5.08;nan
74794;BME280;63320;50.768;6.724;2024-03-08T08:53:41;99931.59;;;5.14;nan
74794;BME280;63320;50.768;6.724;2024-03-08T08:56:06;99927.81;;;5.25;nan
74794;BME280;63320;50.768;6.724;2024-03-08T08:58:32;99921.78;;;5.23;nan
74794;BME280;63320;50.768;6.724;2024-03-08T09:00:57;99926.88;;;5.27;nan
74794;BME280;63320;50.768;6.724;2024-03-08T09:03:22;99921.69;;;5.26;nan
74794;BME280;63320;50.768;6.724;2024-03-08T09:05:48;99920.47;;;5.37;nan
74794;BME280;63320;50.768;6.724;2024-03-08T09:08:13;99914.13;;;5.44;nan
74794;BME280;63320;50.768;6.724;2024-03-08T09:10:40;99921.31;;;5.38;nan
74794;BME280;63320;50.768;6.724;2024-03-08T09:13:05;99913.44;;;5.39;nan
74794;BME280;63320;50.768;6.724;2024-03-08T09:15:31;99911.38;;;5.49;nan
74794;BME280;63320;50.768;6.724;2024-03-08T09:17:56;99907.81;;;5.52;nan
74794;BME280;63320;50.768;6.724;2024-03-08T09:20:22;99907.81;;;5.52;nan
74794;BME280;63320;50.768;6.724;2024-03-08T09:22:47;99896.66;;;5.48;nan
74794;BME280;63320;50.768;6.724;2024-03-08T09:25:13;99899.28;;;5.46;nan
74794;BME280;63320;50.768;6.724;2024-03-08T09:27:39;99886.63;;;5.62;nan
74794;BME280;63320;50.768;6.724;2024-03-08T09:30:05;99890.09;;;5.61;nan
74794;BME280;63320;50.768;6.724;2024-03-08T09:32:31;99888.25;;;5.65;nan
74794;BME280;63320;50.768;6.724;2024-03-08T09:34:56;99887.47;;;5.63;nan
74794;BME280;63320;50.768;6.724;2024-03-08T09:37:22;99882.81;;;5.72;nan
74794;BME280;63320;50.768;6.724;2024-03-08T09:39:47;99874.91;;;5.74;nan
74794;BME280;63320;50.768;6.724;2024-03-08T09:42:13;99872.72;;;5.87;nan
74794;BME280;63320;50.768;6.724;2024-03-08T09:44:39;99867.50;;;5.87;nan
74794;BME280;63320;50.768;6.724;2024-03-08T09:47:05;99864.75;;;5.93;nan
74794;BME280;63320;50.768;6.724;2024-03-08T09:49:30;99860.41;;;5.92;nan
74794;BME280;63320;50.768;6.724;2024-03-08T09:51:56;99856.91;;;5.93;nan
74794;BME280;63320;50.768;6.724;2024-03-08T09:54:21;99853.25;;;5.97;nan
74794;BME280;63320;50.768;6.724;2024-03-08T09:56:48;99845.63;;;5.92;nan
74794;BME280;63320;50.768;6.724;2024-03-08T09:59:16;99845.34;;;6.00;nan
74794;BME280;63320;50.768;6.724;2024-03-08T10:01:43;99835.34;;;6.11;nan
74794;BME280;63320;50.768;6.724;2024-03-08T10:04:08;99831.97;;;6.09;nan
74794;BME280;63320;50.768;6.724;2024-03-08T10:06:34;99830.88;;;6.15;nan
74794;BME280;63320;50.768;6.724;2024-03-08T10:08:59;99828.91;;;6.21;nan
74794;BME280;63320;50.768;6.724;2024-03-08T10:11:25;99823.56;;;6.25;nan
74794;BME280;63320;50.768;6.724;2024-03-08T10:13:50;99821.81;;;6.25;nan
74794;BME280;63320;50.768;6.724;2024-03-08T10:16:15;99819.53;;;6.39;nan
74794;BME280;63320;50.768;6.724;2024-03-08T10:18:42;99819.41;;;6.42;nan
74794;BME280;63320;50.768;6.724;2024-03-08T10:21:11;99828.00;;;6.46;nan
74794;BME280;63320;50.768;6.724;2024-03-08T10:23:37;99808.78;;;6.47;nan
74794;BME280;63320;50.768;6.724;2024-03-08T10:26:10;99821.47;;;6.58;nan
74794;BME280;63320;50.768;6.724;2024-03-08T10:28:35;99802.28;;;6.59;nan
74794;BME280;63320;50.768;6.724;2024-03-08T10:31:01;99805.41;;;6.67;nan
74794;BME280;63320;50.768;6.724;2024-03-08T10:33:26;99799.09;;;6.72;nan
74794;BME280;63320;50.768;6.724;2024-03-08T10:35:53;99793.94;;;6.71;nan
74794;BME280;63320;50.768;6.724;2024-03-08T10:38:20;99787.28;;;6.86;nan
74794;BME280;63320;50.768;6.724;2024-03-08T10:40:46;99793.97;;;6.93;nan
74794;BME280;63320;50.768;6.724;2024-03-08T10:43:24;99791.09;;;6.99;nan
74794;BME280;63320;50.768;6.724;2024-03-08T10:45:52;99790.78;;;7.07;nan
74794;BME280;63320;50.768;6.724;2024-03-08T10:48:28;99777.84;;;7.04;nan
74794;BME280;63320;50.768;6.724;2024-03-08T10:50:56;99770.72;;;7.07;nan
74794;BME280;63320;50.768;6.724;2024-03-08T10:53:22;99780.53;;;7.22;nan
74794;BME280;63320;50.768;6.724;2024-03-08T10:55:49;99776.13;;;7.24;nan
74794;BME280;63320;50.768;6.724;2024-03-08T10:58:15;99775.72;;;7.34;nan
74794;BME280;63320;50.768;6.724;2024-03-08T11:00:41;99765.00;;;7.40;nan
74794;BME280;63320;50.768;6.724;2024-03-08T11:03:06;99761.47;;;7.41;nan
74794;BME280;63320;50.768;6.724;2024-03-08T11:05:37;99759.97;;;7.35;nan
74794;BME280;63320;50.768;6.724;2024-03-08T11:08:05;99764.16;;;7.39;nan
74794;BME280;63320;50.768;6.724;2024-03-08T11:10:46;99747.09;;;7.51;nan
74794;BME280;63320;50.768;6.724;2024-03-08T11:13:33;99751.28;;;7.55;nan
74794;BME280;63320;50.768;6.724;2024-03-08T11:15:59;99751.72;;;7.65;nan
74794;BME280;63320;50.768;6.724;2024-03-08T11:18:25;99740.22;;;7.88;nan
74794;BME280;63320;50.768;6.724;2024-03-08T11:20:53;99740.50;;;7.82;nan
74794;BME280;63320;50.768;6.724;2024-03-08T11:23:22;99734.53;;;7.78;nan
74794;BME280;63320;50.768;6.724;2024-03-08T11:25:48;99730.03;;;7.82;nan
74794;BME280;63320;50.768;6.724;2024-03-08T11:28:14;99724.25;;;7.94;nan
74794;BME280;63320;50.768;6.724;2024-03-08T11:30:41;99722.53;;;7.93;nan
74794;BME280;63320;50.768;6.724;2024-03-08T11:33:11;99717.31;;;8.12;nan
74794;BME280;63320;50.768;6.724;2024-03-08T11:35:36;99712.78;;;7.96;nan
74794;BME280;63320;50.768;6.724;2024-03-08T11:38:02;99711.66;;;8.02;nan
74794;BME280;63320;50.768;6.724;2024-03-08T11:40:29;99714.06;;;8.07;nan
74794;BME280;63320;50.768;6.724;2024-03-08T11:42:54;99709.84;;;8.04;nan
74794;BME280;63320;50.768;6.724;2024-03-08T11:45:19;99708.13;;;8.03;nan
74794;BME280;63320;50.768;6.724;2024-03-08T11:47:45;99697.59;;;8.23;nan
74794;BME280;63320;50.768;6.724;2024-03-08T11:50:11;99697.22;;;8.31;nan
74794;BME280;63320;50.768;6.724;2024-03-08T11:52:36;99690.22;;;8.31;nan
74794;BME280;63320;50.768;6.724;2024-03-08T11:55:02;99681.50;;;8.31;nan
74794;BME280;63320;50.768;6.724;2024-03-08T11:57:29;99678.66;;;8.36;nan
74794;BME280;63320;50.768;6.724;2024-03-08T11:59:55;99673.72;;;8.29;nan
74794;BME280;63320;50.768;6.724;2024-03-08T12:02:21;99673.16;;;8.42;nan
74794;BME280;63320;50.768;6.724;2024-03-08T12:04:47;99674.84;;;8.43;nan
74794;BME280;63320;50.768;6.724;2024-03-08T12:07:12;99667.03;;;8.60;nan
74794;BME280;63320;50.768;6.724;2024-03-08T12:09:38;99672.09;;;8.63;nan
74794;BME280;63320;50.768;6.724;2024-03-08T12:12:03;99680.06;;;8.62;nan
74794;BME280;63320;50.768;6.724;2024-03-08T12:14:33;99665.47;;;8.56;nan
74794;BME280;63320;50.768;6.724;2024-03-08T12:16:58;99659.63;;;8.68;nan
74794;BME280;63320;50.768;6.724;2024-03-08T12:19:24;99662.41;;;8.82;nan
74794;BME280;63320;50.768;6.724;2024-03-08T12:21:50;99655.41;;;8.83;nan
74794;BME280;63320;50.768;6.724;2024-03-08T12:24:16;99658.50;;;8.91;nan
74794;BME280;63320;50.768;6.724;2024-03-08T12:26:42;99640.38;;;8.87;nan
74794;BME280;63320;50.768;6.724;2024-03-08T12:29:17;99640.63;;;8.99;nan
74794;BME280;63320;50.768;6.724;2024-03-08T12:31:44;99640.91;;;9.11;nan
74794;BME280;63320;50.768;6.724;2024-03-08T12:34:10;99635.19;;;9.20;nan
74794;BME280;63320;50.768;6.724;2024-03-08T12:36:36;99624.22;;;9.29;nan
74794;BME280;63320;50.768;6.724;2024-03-08T12:39:01;99619.16;;;9.42;nan
74794;BME280;63320;50.768;6.724;2024-03-08T12:41:27;99613.94;;;9.57;nan
74794;BME280;63320;50.768;6.724;2024-03-08T12:43:52;99613.69;;;9.62;nan
74794;BME280;63320;50.768;6.724;2024-03-08T12:46:19;99614.75;;;9.75;nan
74794;BME280;63320;50.768;6.724;2024-03-08T12:48:46;99601.38;;;9.96;nan
74794;BME280;63320;50.768;6.724;2024-03-08T12:51:11;99592.97;;;10.05;nan
74794;BME280;63320;50.768;6.724;2024-03-08T12:53:37;99589.16;;;10.10;nan
74794;BME280;63320;50.768;6.724;2024-03-08T12:56:03;99591.34;;;10.34;nan
74794;BME280;63320;50.768;6.724;2024-03-08T12:58:28;99583.44;;;10.50;nan
74794;BME280;63320;50.768;6.724;2024-03-08T13:00:54;99582.53;;;10.65;nan
74794;BME280;63320;50.768;6.724;2024-03-08T13:03:19;99575.88;;;10.74;nan
74794;BME280;63320;50.768;6.724;2024-03-08T13:05:46;99575.47;;;10.96;nan
74794;BME280;63320;50.768;6.724;2024-03-08T13:08:11;99570.50;;;11.05;nan
74794;BME280;63320;50.768;6.724;2024-03-08T13:10:36;99557.44;;;11.18;nan
74794;BME280;63320;50.768;6.724;2024-03-08T13:13:02;99563.91;;;11.27;nan
74794;BME280;63320;50.768;6.724;2024-03-08T13:15:27;99554.69;;;11.34;nan
74794;BME280;63320;50.768;6.724;2024-03-08T13:17:53;99561.84;;;11.60;nan